Forside
METAR-TAF:

METAR-TAF

Lufthavne :

Winona Municipal Airport (Max Conrad Field)

Winona, Minnesota, USA

Breddekreds: 44-05N, længdekreds: 091-42W, højde: 200 m

Aktuelle vejr

Denne rapport blev lavet for 20 minutter siden, kl. 11:15 UTC
Vind 7 kt fra sydøst
Temperatur 1°C
Fugtighed 93%
Tryk 1020 hPa
Sigt: 11.3 km
Overskyet i en højde af 1900 ft
let regn

METAR: KONA 241115Z AUTO 14007KT 7SM -RA OVC019 01/00 A3011 RMK AO2

Tid: 05:35 (11:35 UTC)


TAF: fraværende

Vejrobservationer og prognoser fra mere end 4000 lufthavne (METAR og TAF).

De gule og røde prikker repræsenterer de meteorologiske stationer.

Flyt musen over at se navnet på stationen.

Så klik over at se vejr observationer og prognoser.

At skifte det kort: Klik på de grønne knapper med et sort kors for at zoome ind; på den grønne knap med en bindestreg for at zoome ud; eller på de grønne pile for tilstødende kort.


METAR-TAF: